createdAt,value
2018-04-01T00:00:13.355Z,98.39
2018-04-01T00:01:13.360Z,98.39
2018-04-01T00:02:13.331Z,98.39
2018-04-01T00:03:13.318Z,98.11
2018-04-01T00:04:13.051Z,98.58
2018-04-01T00:05:13.292Z,98.39
2018-04-01T00:06:13.277Z,98.77
2018-04-01T00:07:13.264Z,98.21
2018-04-01T00:08:13.252Z,98.11
2018-04-01T00:09:13.239Z,98.21
2018-04-01T00:10:13.226Z,98.58
2018-04-01T00:11:13.216Z,98.68
2018-04-01T00:12:13.204Z,98.39
2018-04-01T00:13:13.189Z,98.11
2018-04-01T00:14:13.174Z,98.39
2018-04-01T00:15:12.909Z,98.02
2018-04-01T00:16:13.151Z,98.02
2018-04-01T00:17:13.135Z,98.3
2018-04-01T00:18:12.870Z,98.21
2018-04-01T00:19:13.110Z,98.77
2018-04-01T00:20:13.096Z,98.58
2018-04-01T00:21:13.083Z,98.87
2018-04-01T00:22:13.070Z,98.58
2018-04-01T00:23:13.058Z,98.39
2018-04-01T00:24:13.043Z,98.77
2018-04-01T00:25:13.030Z,98.02
2018-04-01T00:26:13.031Z,99.15
2018-04-01T00:27:13.005Z,98.39
2018-04-01T00:28:12.747Z,98.77
2018-04-01T00:29:12.978Z,98.87
2018-04-01T00:30:12.967Z,98.3
2018-04-01T00:31:12.953Z,98.21
2018-04-01T00:32:12.946Z,98.39
2018-04-01T00:33:12.927Z,98.21
2018-04-01T00:34:12.915Z,98.11
2018-04-01T00:35:12.902Z,98.21
2018-04-01T00:36:12.894Z,98.11
2018-04-01T00:37:12.876Z,98.3
2018-04-01T00:38:12.871Z,98.21
2018-04-01T00:39:12.849Z,98.87
2018-04-01T00:40:12.838Z,98.87
2018-04-01T00:41:12.825Z,98.87
2018-04-01T00:42:12.810Z,99.06
2018-04-01T00:43:12.797Z,98.96
2018-04-01T00:44:12.805Z,98.87
2018-04-01T00:45:12.781Z,98.63
2018-04-01T00:46:12.757Z,98.82
2018-04-01T00:47:12.745Z,98.72
2018-04-01T00:48:12.482Z,98.72
2018-04-01T00:49:12.719Z,98.39
2018-04-01T00:50:12.720Z,98.58
2018-04-01T00:51:12.699Z,98.96
2018-04-01T00:52:12.691Z,98.77
2018-04-01T00:53:12.666Z,98.68
2018-04-01T00:54:12.658Z,98.96
2018-04-01T00:55:12.646Z,98.39
2018-04-01T00:56:12.640Z,98.11
2018-04-01T00:57:12.623Z,98.21
2018-04-01T00:58:12.607Z,98.68
2018-04-01T00:59:12.594Z,98.39
2018-04-01T01:00:12.576Z,98.39
2018-04-01T01:01:12.562Z,98.39
2018-04-01T01:02:12.581Z,98.11
2018-04-01T01:03:12.610Z,99.06
2018-04-01T01:04:12.560Z,98.87
2018-04-01T01:05:12.257Z,98.49
2018-04-01T01:06:12.496Z,98.3
2018-04-01T01:07:12.483Z,98.77
2018-04-01T01:08:12.473Z,98.77
2018-04-01T01:09:12.460Z,98.3
2018-04-01T01:10:12.446Z,98.72
2018-04-01T01:11:12.432Z,98.49
2018-04-01T01:12:12.165Z,98.44
2018-04-01T01:13:12.152Z,99.01
2018-04-01T01:14:12.392Z,98.68
2018-04-01T01:15:12.381Z,98.49
2018-04-01T01:16:12.366Z,98.35
2018-04-01T01:17:12.358Z,98.68
2018-04-01T01:18:12.341Z,98.87
2018-04-01T01:19:12.075Z,98.63
2018-04-01T01:20:12.315Z,98.49
2018-04-01T01:21:12.301Z,98.96
2018-04-01T01:22:12.301Z,98.77
2018-04-01T01:23:12.284Z,98.21
2018-04-01T01:24:12.261Z,98.68
2018-04-01T01:25:12.248Z,98.77
2018-04-01T01:26:12.241Z,98.91
2018-04-01T01:27:12.221Z,98.82
2018-04-01T01:28:12.215Z,98.82
2018-04-01T01:29:11.943Z,98.63
2018-04-01T01:30:12.188Z,98.77
2018-04-01T01:31:12.171Z,98.91
2018-04-01T01:32:12.157Z,98.72
2018-04-01T01:33:12.145Z,98.39
2018-04-01T01:34:12.135Z,98.87
2018-04-01T01:35:11.864Z,98.35
2018-04-01T01:36:12.107Z,98.21
2018-04-01T01:37:11.838Z,98.21
2018-04-01T01:38:12.081Z,98.39
2018-04-01T01:39:12.065Z,98.21
2018-04-01T01:40:12.054Z,98.87
2018-04-01T01:41:12.040Z,98.39
2018-04-01T01:42:12.025Z,98.58
2018-04-01T01:43:12.014Z,98.16
2018-04-01T01:44:11.998Z,98.16
2018-04-01T01:45:11.734Z,98.39
2018-04-01T01:46:11.973Z,99.06
2018-04-01T01:47:11.964Z,98.77
2018-04-01T01:48:11.951Z,98.91
2018-04-01T01:49:11.937Z,98.91
2018-04-01T01:50:11.920Z,98.82
2018-04-01T01:51:11.912Z,98.68
2018-04-01T01:52:11.894Z,98.72
2018-04-01T01:53:11.883Z,98.87
2018-04-01T01:54:11.871Z,98.72
2018-04-01T01:55:11.858Z,98.87
2018-04-01T01:56:11.848Z,98.82
2018-04-01T01:57:11.575Z,98.77
2018-04-01T01:58:11.816Z,98.87
2018-04-01T01:59:11.806Z,98.54
2018-04-01T02:00:11.791Z,98.72
2018-04-01T02:01:11.778Z,98.63
2018-04-01T02:02:11.767Z,98.82
2018-04-01T02:03:11.496Z,98.54
2018-04-01T02:04:11.741Z,98.87
2018-04-01T02:05:11.722Z,98.72
2018-04-01T02:06:11.708Z,98.82
2018-04-01T02:07:11.695Z,98.82
2018-04-01T02:08:11.683Z,98.77
2018-04-01T02:09:11.671Z,98.91
2018-04-01T02:10:11.657Z,99.2
2018-04-01T02:11:11.645Z,98.72
2018-04-01T02:12:11.631Z,98.72
2018-04-01T02:13:11.366Z,98.72
2018-04-01T02:14:11.606Z,98.54
2018-04-01T02:15:11.596Z,98.72
2018-04-01T02:16:11.325Z,98.82
2018-04-01T02:17:11.564Z,98.91
2018-04-01T02:18:11.552Z,98.54
2018-04-01T02:19:11.542Z,98.54
2018-04-01T02:20:11.526Z,98.54
2018-04-01T02:21:11.520Z,98.63
2018-04-01T02:22:11.249Z,99.29
2018-04-01T02:23:11.492Z,99.29
2018-04-01T02:24:11.471Z,98.63
2018-04-01T02:25:11.460Z,98.91
2018-04-01T02:26:11.446Z,99.29
2018-04-01T02:27:11.438Z,99.1
2018-04-01T02:28:11.418Z,98.54
2018-04-01T02:29:11.406Z,99.01
2018-04-01T02:30:11.142Z,99.2
2018-04-01T02:31:11.382Z,98.82
2018-04-01T02:32:11.371Z,99.2
2018-04-01T02:33:11.356Z,98.72
2018-04-01T02:34:11.089Z,98.72
2018-04-01T02:35:11.331Z,99.1
2018-04-01T02:36:11.317Z,99.01
2018-04-01T02:37:11.303Z,98.82
2018-04-01T02:38:11.290Z,99.39
2018-04-01T02:39:11.278Z,98.54
2018-04-01T02:40:11.263Z,98.82
2018-04-01T02:41:10.994Z,98.54
2018-04-01T02:42:11.241Z,99.48
2018-04-01T02:43:11.223Z,99.29
2018-04-01T02:44:10.955Z,98.54
2018-04-01T02:45:11.202Z,98.72
2018-04-01T02:46:11.180Z,98.91
2018-04-01T02:47:11.166Z,99.01
2018-04-01T02:48:11.157Z,98.63
2018-04-01T02:49:11.144Z,98.72
2018-04-01T02:50:10.875Z,98.91
2018-04-01T02:51:11.120Z,98.54
2018-04-01T02:52:11.111Z,98.54
2018-04-01T02:53:11.087Z,98.91
2018-04-01T02:54:11.075Z,98.82
2018-04-01T02:55:11.072Z,98.72
2018-04-01T02:56:11.066Z,99.1
2018-04-01T02:57:11.043Z,99.29
2018-04-01T02:58:11.026Z,98.91
2018-04-01T02:59:11.017Z,98.72
2018-04-01T03:00:11.001Z,99.01
2018-04-01T03:01:10.986Z,98.63
2018-04-01T03:02:10.715Z,98.91
2018-04-01T03:03:10.959Z,99.48
2018-04-01T03:04:10.947Z,98.63
2018-04-01T03:05:10.931Z,99.1
2018-04-01T03:06:10.662Z,99.1
2018-04-01T03:07:10.918Z,99.01
2018-04-01T03:08:10.640Z,98.91
2018-04-01T03:09:10.879Z,98.72
2018-04-01T03:10:10.866Z,98.54
2018-04-01T03:11:10.971Z,98.72
2018-04-01T03:12:10.842Z,98.63
2018-04-01T03:13:10.832Z,99.48
2018-04-01T03:14:10.809Z,99.1
2018-04-01T03:15:10.815Z,99.1
2018-04-01T03:16:10.780Z,98.82
2018-04-01T03:17:10.768Z,99.1
2018-04-01T03:18:10.761Z,99.39
2018-04-01T03:19:10.497Z,99.2
2018-04-01T03:20:10.477Z,98.72
2018-04-01T03:21:10.723Z,99.48
2018-04-01T03:22:10.710Z,98.91
2018-04-01T03:23:10.435Z,99.29
2018-04-01T03:24:10.680Z,99.48
2018-04-01T03:25:10.409Z,98.91
2018-04-01T03:26:10.648Z,98.54
2018-04-01T03:27:10.636Z,99.67
2018-04-01T03:28:10.622Z,98.63
2018-04-01T03:29:10.608Z,99.48
2018-04-01T03:30:10.611Z,98.91
2018-04-01T03:31:10.644Z,99.48
2018-04-01T03:32:10.570Z,99.48
2018-04-01T03:33:10.564Z,99.01
2018-04-01T03:34:10.542Z,99.01
2018-04-01T03:35:10.530Z,99.1
2018-04-01T03:36:10.533Z,99.1
2018-04-01T03:37:10.512Z,99.39
2018-04-01T03:38:10.496Z,99.67
2018-04-01T03:39:10.223Z,99.1
2018-04-01T03:40:10.461Z,98.72
2018-04-01T03:41:10.449Z,99.1
2018-04-01T03:42:10.435Z,99.01
2018-04-01T03:43:10.423Z,99.01
2018-04-01T03:44:10.409Z,99.1
2018-04-01T03:45:10.399Z,99.1
2018-04-01T03:46:10.129Z,99.1
2018-04-01T03:47:10.370Z,98.91
2018-04-01T03:48:10.355Z,98.72
2018-04-01T03:49:10.344Z,99.1
2018-04-01T03:50:10.329Z,99.48
2018-04-01T03:51:10.315Z,98.91
2018-04-01T03:52:10.309Z,98.54
2018-04-01T03:53:10.290Z,99.48
2018-04-01T03:54:10.282Z,98.91
2018-04-01T03:55:10.264Z,99.39
2018-04-01T03:56:10.251Z,99.29
2018-04-01T03:57:10.241Z,98.72
2018-04-01T03:58:10.225Z,98.72
2018-04-01T03:59:10.216Z,98.72
2018-04-01T04:00:10.201Z,98.72
2018-04-01T04:01:10.230Z,98.91
2018-04-01T04:02:10.170Z,99.48
2018-04-01T04:03:10.175Z,99.2
2018-04-01T04:04:10.143Z,98.91
2018-04-01T04:05:10.148Z,99.01
2018-04-01T04:06:10.120Z,98.91
2018-04-01T04:07:10.102Z,99.1
2018-04-01T04:08:10.104Z,99.1
2018-04-01T04:09:10.076Z,98.91
2018-04-01T04:10:10.062Z,99.29
2018-04-01T04:11:10.049Z,99.1
2018-04-01T04:12:10.037Z,99.1
2018-04-01T04:13:10.029Z,98.82
2018-04-01T04:14:10.010Z,98.91
2018-04-01T04:15:09.996Z,99.39
2018-04-01T04:16:09.984Z,99.2
2018-04-01T04:17:09.969Z,99.29
2018-04-01T04:18:09.956Z,98.91
2018-04-01T04:19:09.943Z,99.2
2018-04-01T04:20:09.931Z,99.1
2018-04-01T04:21:09.663Z,99.67
2018-04-01T04:22:09.903Z,99.29
2018-04-01T04:23:09.890Z,99.67
2018-04-01T04:24:09.880Z,98.91
2018-04-01T04:25:09.864Z,99.29
2018-04-01T04:26:09.862Z,99.77
2018-04-01T04:27:09.838Z,99.1
2018-04-01T04:28:09.823Z,99.1
2018-04-01T04:29:09.810Z,99.58
2018-04-01T04:30:09.797Z,99.1
2018-04-01T04:31:09.783Z,99.1
2018-04-01T04:32:09.770Z,98.91
2018-04-01T04:33:09.755Z,99.39
2018-04-01T04:34:09.743Z,99.39
2018-04-01T04:35:09.728Z,99.67
2018-04-01T04:36:09.724Z,99.67
2018-04-01T04:37:09.702Z,99.48
2018-04-01T04:38:09.691Z,99.01
2018-04-01T04:39:09.685Z,99.29
2018-04-01T04:40:09.409Z,99.48
2018-04-01T04:41:09.651Z,99.39
2018-04-01T04:42:09.638Z,99.29
2018-04-01T04:43:09.628Z,99.48
2018-04-01T04:44:09.608Z,99.2
2018-04-01T04:45:09.598Z,99.2
2018-04-01T04:46:09.585Z,99.29
2018-04-01T04:47:09.578Z,98.91
2018-04-01T04:48:09.555Z,99.39
2018-04-01T04:49:09.541Z,99.29
2018-04-01T04:50:09.528Z,99.39
2018-04-01T04:51:09.513Z,99.01
2018-04-01T04:52:09.499Z,99.1
2018-04-01T04:53:09.486Z,99.67
2018-04-01T04:54:09.472Z,99.2
2018-04-01T04:55:09.461Z,99.48
2018-04-01T04:56:09.445Z,99.39
2018-04-01T04:57:09.434Z,99.77
2018-04-01T04:58:09.443Z,99.67
2018-04-01T04:59:09.152Z,99.58
2018-04-01T05:00:09.391Z,99.48
2018-04-01T05:01:09.377Z,99.39
2018-04-01T05:02:09.364Z,99.1
2018-04-01T05:03:09.362Z,99.2
2018-04-01T05:04:09.085Z,99.39
2018-04-01T05:05:09.322Z,99.39
2018-04-01T05:06:09.309Z,98.91
2018-04-01T05:07:09.297Z,99.39
2018-04-01T05:08:09.282Z,99.39
2018-04-01T05:09:09.270Z,99.2
2018-04-01T05:10:09.004Z,99.39
2018-04-01T05:11:08.989Z,99.29
2018-04-01T05:12:09.232Z,99.1
2018-04-01T05:13:09.216Z,99.39
2018-04-01T05:14:08.948Z,99.1
2018-04-01T05:15:09.195Z,99.48
2018-04-01T05:16:09.176Z,99.39
2018-04-01T05:17:09.273Z,99.1
2018-04-01T05:18:09.151Z,99.1
2018-04-01T05:19:09.139Z,99.2
2018-04-01T05:20:09.120Z,99.77
2018-04-01T05:21:09.108Z,99.01
2018-04-01T05:22:09.097Z,99.58
2018-04-01T05:23:09.078Z,99.48
2018-04-01T05:24:09.066Z,99.58
2018-04-01T05:25:09.052Z,99.39
2018-04-01T05:26:09.038Z,98.91
2018-04-01T05:27:08.771Z,99.48
2018-04-01T05:28:09.011Z,99.1
2018-04-01T05:29:08.998Z,99.39
2018-04-01T05:30:08.985Z,99.58
2018-04-01T05:31:08.970Z,99.48
2018-04-01T05:32:08.958Z,99.29
2018-04-01T05:33:08.950Z,99.39
2018-04-01T05:34:08.928Z,99.29
2018-04-01T05:35:08.923Z,99.39
2018-04-01T05:36:08.906Z,99.39
2018-04-01T05:37:08.636Z,99.58
2018-04-01T05:38:08.877Z,99.67
2018-04-01T05:39:08.609Z,99.1
2018-04-01T05:40:08.856Z,98.91
2018-04-01T05:41:08.835Z,99.39
2018-04-01T05:42:08.821Z,99.39
2018-04-01T05:43:08.555Z,99.29
2018-04-01T05:44:08.837Z,99.1
2018-04-01T05:45:08.780Z,99.1
2018-04-01T05:46:08.776Z,99.1
2018-04-01T05:47:08.753Z,99.67
2018-04-01T05:48:08.741Z,99.39
2018-04-01T05:49:08.473Z,99.01
2018-04-01T05:50:08.713Z,99.86
2018-04-01T05:51:08.701Z,99.1
2018-04-01T05:52:08.688Z,99.48
2018-04-01T05:53:08.420Z,99.29
2018-04-01T05:54:08.407Z,99.39
2018-04-01T05:55:08.648Z,99.39
2018-04-01T05:56:08.633Z,99.2
2018-04-01T05:57:08.619Z,99.58
2018-04-01T05:58:08.605Z,99.48
2018-04-01T05:59:08.339Z,99.2
2018-04-01T06:00:08.328Z,99.48
2018-04-01T06:01:08.312Z,99.39
2018-04-01T06:02:08.557Z,99.48
2018-04-01T06:03:08.284Z,99.48
2018-04-01T06:04:08.524Z,99.2
2018-04-01T06:05:08.258Z,99.39
2018-04-01T06:06:08.502Z,99.29
2018-04-01T06:07:08.495Z,99.39
2018-04-01T06:08:08.470Z,99.48
2018-04-01T06:09:08.459Z,99.39
2018-04-01T06:10:08.443Z,99.48
2018-04-01T06:11:08.178Z,99.58
2018-04-01T06:12:08.419Z,99.67
2018-04-01T06:13:08.151Z,99.48
2018-04-01T06:14:08.394Z,99.39
2018-04-01T06:15:08.380Z,99.2
2018-04-01T06:16:08.109Z,99.77
2018-04-01T06:17:08.096Z,99.2
2018-04-01T06:18:08.338Z,99.48
2018-04-01T06:19:08.323Z,99.48
2018-04-01T06:20:08.056Z,99.39
2018-04-01T06:21:08.294Z,99.39
2018-04-01T06:22:08.286Z,99.2
2018-04-01T06:23:08.016Z,98.82
2018-04-01T06:24:08.002Z,99.48
2018-04-01T06:25:08.243Z,99.39
2018-04-01T06:26:08.229Z,99.48
2018-04-01T06:27:08.220Z,99.48
2018-04-01T06:28:07.950Z,99.29
2018-04-01T06:29:08.188Z,99.29
2018-04-01T06:30:08.178Z,99.58
2018-04-01T06:31:08.164Z,99.39
2018-04-01T06:32:08.147Z,99.01
2018-04-01T06:33:08.149Z,99.39
2018-04-01T06:34:08.122Z,98.91
2018-04-01T06:35:08.114Z,99.48
2018-04-01T06:36:08.095Z,99.34
2018-04-01T06:37:08.082Z,99.01
2018-04-01T06:38:08.072Z,98.91
2018-04-01T06:39:08.057Z,99.53
2018-04-01T06:40:08.123Z,99.72
2018-04-01T06:41:08.030Z,98.96
2018-04-01T06:42:08.016Z,99.06
2018-04-01T06:43:07.749Z,99.63
2018-04-01T06:44:07.993Z,99.34
2018-04-01T06:45:07.980Z,99.15
2018-04-01T06:46:07.970Z,99.06
2018-04-01T06:47:07.960Z,99.06
2018-04-01T06:48:07.944Z,98.87
2018-04-01T06:49:07.927Z,98.96
2018-04-01T06:50:07.661Z,99.72
2018-04-01T06:51:07.902Z,98.68
2018-04-01T06:52:07.892Z,99.44
2018-04-01T06:53:07.622Z,99.15
2018-04-01T06:54:07.609Z,99.34
2018-04-01T06:55:07.851Z,98.77
2018-04-01T06:56:07.841Z,98.58
2018-04-01T06:57:07.824Z,98.77
2018-04-01T06:58:07.814Z,99.3
2018-04-01T06:59:07.799Z,98.92
2018-04-01T07:00:07.786Z,98.82
2018-04-01T07:01:07.785Z,98.82
2018-04-01T07:02:07.762Z,98.25
2018-04-01T07:03:07.749Z,98.25
2018-04-01T07:04:07.739Z,98.25
2018-04-01T07:05:07.471Z,98.92
2018-04-01T07:06:07.714Z,99.01
2018-04-01T07:07:07.713Z,98.82
2018-04-01T07:08:07.690Z,99.2
2018-04-01T07:09:07.421Z,98.92
2018-04-01T07:10:07.409Z,99.39
2018-04-01T07:11:07.651Z,98.63
2018-04-01T07:12:07.710Z,98.16
2018-04-01T07:13:07.626Z,98.54
2018-04-01T07:14:07.614Z,98.92
2018-04-01T07:15:07.606Z,98.92
2018-04-01T07:16:07.593Z,98.25
2018-04-01T07:17:07.578Z,98.16
2018-04-01T07:18:07.566Z,98.44
2018-04-01T07:19:07.301Z,99.49
2018-04-01T07:20:07.542Z,98.16
2018-04-01T07:21:07.277Z,98.35
2018-04-01T07:22:07.518Z,98.35
2018-04-01T07:23:07.506Z,98.73
2018-04-01T07:24:07.240Z,98.44
2018-04-01T07:25:07.482Z,98.25
2018-04-01T07:26:07.469Z,98.63
2018-04-01T07:27:07.458Z,98.07
2018-04-01T07:28:07.193Z,99.58
2018-04-01T07:29:07.181Z,98.82
2018-04-01T07:30:07.430Z,97.92
2018-04-01T07:31:07.408Z,98.07
2018-04-01T07:32:07.400Z,98.25
2018-04-01T07:33:07.386Z,99.16
2018-04-01T07:34:07.384Z,98.02
2018-04-01T07:35:07.110Z,98.4
2018-04-01T07:36:07.356Z,98.3
2018-04-01T07:37:07.359Z,98.02
2018-04-01T07:38:07.344Z,98.11
2018-04-01T07:39:07.317Z,98.4
2018-04-01T07:40:07.304Z,98.21
2018-04-01T07:41:07.294Z,98.78
2018-04-01T07:42:07.281Z,97.92
2018-04-01T07:43:07.016Z,98.4
2018-04-01T07:44:07.257Z,98.4
2018-04-01T07:45:06.995Z,98.59
2018-04-01T07:46:07.237Z,97.92
2018-04-01T07:47:07.222Z,97.74
2018-04-01T07:48:07.212Z,98.21
2018-04-01T07:49:07.198Z,98.49
2018-04-01T07:50:07.187Z,98.11
2018-04-01T07:51:07.246Z,98.11
2018-04-01T07:52:07.168Z,98.4
2018-04-01T07:53:07.158Z,98.11
2018-04-01T07:54:07.148Z,98.3
2018-04-01T07:55:07.134Z,97.64
2018-04-01T07:56:07.122Z,97.92
2018-04-01T07:57:07.110Z,97.17
2018-04-01T07:58:07.096Z,96.88
2018-04-01T07:59:07.085Z,96.88
2018-04-01T08:00:06.822Z,97.36
2018-04-01T08:01:07.063Z,97.26
2018-04-01T08:02:06.798Z,97.64
2018-04-01T08:03:07.040Z,97.55
2018-04-01T08:04:07.038Z,97.55
2018-04-01T08:05:07.017Z,97.74
2018-04-01T08:06:07.007Z,97.26
2018-04-01T08:07:06.995Z,97.45
2018-04-01T08:08:07.041Z,96.59
2018-04-01T08:09:06.987Z,97.17
2018-04-01T08:10:06.975Z,97.02
2018-04-01T08:11:06.951Z,97.55
2018-04-01T08:12:06.939Z,97.88
2018-04-01T08:13:06.929Z,97.69
2018-04-01T08:14:06.919Z,97.02
2018-04-01T08:15:06.914Z,96.08
2018-04-01T08:16:06.898Z,96.08
2018-04-01T08:17:06.884Z,96.26
2018-04-01T08:18:06.620Z,96.78
2018-04-01T08:19:06.862Z,96.41
2018-04-01T08:20:06.852Z,94.89
2018-04-01T08:21:06.841Z,95.84
2018-04-01T08:22:06.828Z,96.59
2018-04-01T08:23:06.822Z,96.08
2018-04-01T08:24:06.809Z,96.59
2018-04-01T08:25:06.545Z,96.26
2018-04-01T08:26:06.793Z,96.78
2018-04-01T08:27:06.776Z,96.17
2018-04-01T08:28:06.777Z,97.02
2018-04-01T08:29:06.500Z,96.36
2018-04-01T08:30:06.744Z,95.79
2018-04-01T08:31:06.730Z,96.64
2018-04-01T08:32:06.719Z,96.83
2018-04-01T08:33:06.707Z,97.02
2018-04-01T08:34:06.700Z,96.64
2018-04-01T08:35:06.687Z,96.55
2018-04-01T08:36:06.676Z,96.83
2018-04-01T08:37:06.668Z,95.41
2018-04-01T08:38:06.657Z,96.17
2018-04-01T08:39:06.641Z,96.55
2018-04-01T08:40:06.691Z,97.12
2018-04-01T08:41:06.640Z,97.69
2018-04-01T08:42:06.610Z,94.65
2018-04-01T08:43:06.599Z,96.36
2018-04-01T08:44:06.590Z,96.74
2018-04-01T08:45:06.585Z,94.46
2018-04-01T08:46:06.567Z,94.37
2018-04-01T08:47:06.556Z,94.08
2018-04-01T08:48:06.545Z,94.18
2018-04-01T08:49:06.535Z,94.74
2018-04-01T08:50:06.524Z,95.6
2018-04-01T08:51:06.513Z,94.84
2018-04-01T08:52:06.499Z,95.22
2018-04-01T08:53:06.237Z,94.93
2018-04-01T08:54:06.486Z,94.74
2018-04-01T08:55:06.468Z,95.89
2018-04-01T08:56:06.205Z,95.79
2018-04-01T08:57:06.457Z,95.84
2018-04-01T08:58:06.436Z,95.94
2018-04-01T08:59:06.425Z,93.84
2018-04-01T09:00:06.415Z,93.27
2018-04-01T09:01:06.154Z,92.99
2018-04-01T09:02:06.394Z,93.18
2018-04-01T09:03:06.391Z,92.13
2018-04-01T09:04:06.388Z,91.85
2018-04-01T09:05:06.366Z,93.56
2018-04-01T09:06:06.351Z,92.99
2018-04-01T09:07:06.342Z,92.9
2018-04-01T09:08:06.332Z,93.84
2018-04-01T09:09:06.324Z,94.6
2018-04-01T09:10:06.312Z,94.13
2018-04-01T09:11:06.305Z,94.51
2018-04-01T09:12:06.352Z,94.51
2018-04-01T09:13:06.286Z,94.7
2018-04-01T09:14:06.279Z,93.37
2018-04-01T09:15:06.264Z,93.6
2018-04-01T09:16:06.252Z,94.32
2018-04-01T09:17:05.989Z,92.66
2018-04-01T09:18:06.231Z,92.08
2018-04-01T09:19:06.221Z,92.27
2018-04-01T09:20:06.215Z,92.46
2018-04-01T09:21:06.254Z,92.27
2018-04-01T09:22:06.193Z,92.66
2018-04-01T09:23:06.184Z,92.27
2018-04-01T09:24:06.176Z,90.19
2018-04-01T09:25:05.919Z,90.47
2018-04-01T09:26:06.157Z,90.75
2018-04-01T09:27:06.146Z,91.99
2018-04-01T09:28:06.135Z,90.94
2018-04-01T09:29:06.126Z,91.71
2018-04-01T09:30:06.122Z,91.61
2018-04-01T09:31:06.114Z,92.8
2018-04-01T09:32:05.844Z,93.04
2018-04-01T09:33:06.088Z,93.37
2018-04-01T09:34:06.080Z,91.19
2018-04-01T09:35:06.073Z,90.8
2018-04-01T09:36:06.061Z,92.42
2018-04-01T09:37:05.796Z,92.51
2018-04-01T09:38:05.796Z,92.99
2018-04-01T09:39:05.776Z,93.94
2018-04-01T09:40:06.021Z,92.99
2018-04-01T09:41:06.011Z,92.9
2018-04-01T09:42:06.055Z,92.23
2018-04-01T09:43:05.989Z,90.71
2018-04-01T09:44:06.031Z,91.09
2018-04-01T09:45:05.718Z,92.71
2018-04-01T09:46:05.986Z,92.61
2018-04-01T09:47:05.953Z,92.13
2018-04-01T09:48:05.940Z,93.08
2018-04-01T09:49:05.940Z,91.94
2018-04-01T09:50:05.920Z,92.51
2018-04-01T09:51:05.906Z,92.66
2018-04-01T09:52:05.648Z,93.51
2018-04-01T09:53:05.888Z,93.94
2018-04-01T09:54:05.882Z,94.37
2018-04-01T09:55:05.867Z,93.75
2018-04-01T09:56:05.857Z,91.42
2018-04-01T09:57:05.845Z,92.94
2018-04-01T09:58:05.836Z,92.09
2018-04-01T09:59:05.837Z,93.6
2018-04-01T10:00:05.563Z,94.37
2018-04-01T10:01:05.812Z,94.27
2018-04-01T10:02:05.794Z,94.84
2018-04-01T10:03:05.840Z,93.6
2018-04-01T10:04:05.771Z,92.56
2018-04-01T10:05:05.510Z,92.28
2018-04-01T10:06:05.498Z,92.28
2018-04-01T10:07:05.743Z,93.23
2018-04-01T10:08:05.476Z,92.75
2018-04-01T10:09:05.718Z,92.94
2018-04-01T10:10:05.709Z,91.89
2018-04-01T10:11:05.697Z,92.66
2018-04-01T10:12:05.685Z,92.66
2018-04-01T10:13:05.676Z,92.94
2018-04-01T10:14:05.416Z,93.41
2018-04-01T10:15:05.402Z,93.7
2018-04-01T10:16:05.646Z,93.51
2018-04-01T10:17:05.634Z,93.8
2018-04-01T10:18:05.638Z,92.47
2018-04-01T10:19:05.612Z,92.47
2018-04-01T10:20:05.743Z,91.04
2018-04-01T10:21:05.590Z,91.42
2018-04-01T10:22:05.585Z,91.52
2018-04-01T10:23:05.568Z,91.85
2018-04-01T10:24:05.560Z,91.66
2018-04-01T10:25:05.295Z,92.52
2018-04-01T10:26:05.537Z,92.61
2018-04-01T10:27:05.272Z,93.18
2018-04-01T10:28:05.514Z,93.37
2018-04-01T10:29:05.250Z,93.56
2018-04-01T10:30:05.497Z,94.42
2018-04-01T10:31:05.227Z,94.13
2018-04-01T10:32:05.475Z,94.89
2018-04-01T10:33:05.207Z,94.51
2018-04-01T10:34:05.447Z,93.75
2018-04-01T10:35:05.439Z,92.52
2018-04-01T10:36:05.427Z,92.99
2018-04-01T10:37:05.414Z,92.71
2018-04-01T10:38:05.458Z,93.18
2018-04-01T10:39:05.392Z,91.56
2018-04-01T10:40:05.390Z,92.14
2018-04-01T10:41:05.374Z,92.33
2018-04-01T10:42:05.359Z,92.52
2018-04-01T10:43:05.096Z,93.18
2018-04-01T10:44:05.341Z,93.37
2018-04-01T10:45:05.331Z,93.08
2018-04-01T10:46:05.317Z,93.46
2018-04-01T10:47:05.051Z,93.46
2018-04-01T10:48:05.295Z,92.9
2018-04-01T10:49:05.283Z,92.71
2018-04-01T10:50:05.275Z,93.37
2018-04-01T10:51:05.014Z,93.46
2018-04-01T10:52:04.994Z,93.84
2018-04-01T10:53:04.984Z,94.23
2018-04-01T10:54:05.229Z,94.98
2018-04-01T10:55:05.035Z,94.79
2018-04-01T10:56:05.202Z,94.51
2018-04-01T10:57:04.940Z,93.65
2018-04-01T10:58:05.194Z,93.27
2018-04-01T10:59:05.185Z,93.75
2018-04-01T11:00:05.169Z,93.37
2018-04-01T11:01:04.892Z,94.89
2018-04-01T11:02:05.386Z,95.55
2018-04-01T11:03:04.880Z,94.32
2018-04-01T11:04:05.117Z,93.08
2018-04-01T11:05:04.876Z,92.61
2018-04-01T11:06:05.087Z,93.37
2018-04-01T11:07:05.081Z,94.32
2018-04-01T11:08:05.065Z,93.94
2018-04-01T11:09:05.054Z,92.52
2018-04-01T11:10:04.790Z,92.71
2018-04-01T11:11:05.031Z,94.13
2018-04-01T11:12:04.768Z,93.84
2018-04-01T11:13:05.010Z,94.23
2018-04-01T11:14:04.996Z,94.32
2018-04-01T11:15:04.990Z,93.08
2018-04-01T11:16:04.977Z,92.61
2018-04-01T11:17:04.709Z,93.56
2018-04-01T11:18:04.951Z,93.08
2018-04-01T11:19:04.690Z,93.18
2018-04-01T11:20:04.680Z,92.52
2018-04-01T11:21:04.922Z,91.47
2018-04-01T11:22:04.668Z,91.28
2018-04-01T11:23:04.919Z,92.52
2018-04-01T11:24:04.889Z,92.71
2018-04-01T11:25:04.622Z,92.94
2018-04-01T11:26:04.612Z,93.8
2018-04-01T11:27:04.854Z,94.37
2018-04-01T11:28:04.585Z,94.93
2018-04-01T11:29:04.838Z,92.18
2018-04-01T11:30:04.817Z,91.24
2018-04-01T11:31:04.808Z,90.47
2018-04-01T11:32:04.815Z,91.14
2018-04-01T11:33:04.531Z,91.14
2018-04-01T11:34:04.774Z,91.04
2018-04-01T11:35:04.527Z,90.95
2018-04-01T11:36:04.757Z,90.57
2018-04-01T11:37:04.753Z,91.42
2018-04-01T11:38:04.478Z,90.38
2018-04-01T11:39:04.718Z,91.04
2018-04-01T11:40:04.709Z,90.95
2018-04-01T11:41:04.700Z,90.66
2018-04-01T11:42:04.434Z,91.33
2018-04-01T11:43:04.432Z,91.8
2018-04-01T11:44:04.698Z,90.57
2018-04-01T11:45:04.401Z,90.57
2018-04-01T11:46:04.391Z,90.95
2018-04-01T11:47:04.682Z,91.42
2018-04-01T11:48:04.370Z,90.95
2018-04-01T11:49:04.618Z,90.95
2018-04-01T11:50:04.357Z,90.95
2018-04-01T11:51:04.338Z,91.24
2018-04-01T11:52:04.332Z,90.57
2018-04-01T11:53:04.569Z,89.43
2018-04-01T11:54:04.560Z,90.38
2018-04-01T11:55:04.553Z,91.8
2018-04-01T11:56:04.289Z,91.42
2018-04-01T11:57:04.274Z,90.38
2018-04-01T11:58:04.263Z,90.66
2018-04-01T11:59:04.504Z,91.33
2018-04-01T12:00:04.241Z,91.52
2018-04-01T12:01:04.230Z,92.09
2018-04-01T12:02:04.473Z,91.24
2018-04-01T12:03:04.216Z,90.76
2018-04-01T12:04:04.200Z,90.38
2018-04-01T12:05:04.440Z,89.81
2018-04-01T12:06:04.188Z,90.19
2018-04-01T12:07:04.426Z,90.19
2018-04-01T12:08:04.430Z,90
2018-04-01T12:09:04.146Z,89.53
2018-04-01T12:10:04.136Z,89.43
2018-04-01T12:11:04.386Z,91.42
2018-04-01T12:12:04.371Z,91.71
2018-04-01T12:13:04.103Z,92.28
2018-04-01T12:14:04.375Z,91.99
2018-04-01T12:15:04.083Z,91.99
2018-04-01T12:16:04.327Z,91.38
2018-04-01T12:17:04.314Z,91.66
2018-04-01T12:18:04.053Z,90.71
2018-04-01T12:19:04.304Z,90.52
2018-04-01T12:20:04.429Z,91.47
2018-04-01T12:21:04.021Z,90.33
2018-04-01T12:22:04.012Z,89.09
2018-04-01T12:23:04.009Z,89.95
2018-04-01T12:24:03.990Z,88.24
2018-04-01T12:25:03.982Z,89.09
2018-04-01T12:26:03.971Z,89.09
2018-04-01T12:27:04.213Z,91.19
2018-04-01T12:28:04.206Z,91.85
2018-04-01T12:29:04.194Z,89.33
2018-04-01T12:30:04.191Z,89.04
2018-04-01T12:31:03.926Z,87.62
2018-04-01T12:32:04.165Z,89.04
2018-04-01T12:33:03.910Z,89.52
2018-04-01T12:34:03.892Z,89.33
2018-04-01T12:35:03.884Z,88.09
2018-04-01T12:36:03.875Z,88.95
2018-04-01T12:37:04.118Z,88.85
2018-04-01T12:38:04.107Z,88.76
2018-04-01T12:39:04.100Z,87.52
2018-04-01T12:40:03.842Z,87.52
2018-04-01T12:41:03.828Z,88.9
2018-04-01T12:42:03.820Z,89.28
2018-04-01T12:43:04.066Z,86.61
2018-04-01T12:44:03.805Z,86.52
2018-04-01T12:45:04.046Z,86.33
2018-04-01T12:46:04.040Z,86.24
2018-04-01T12:47:03.786Z,87.28
2018-04-01T12:48:03.775Z,87.05
2018-04-01T12:49:03.757Z,87.19
2018-04-01T12:50:03.748Z,87.95
2018-04-01T12:51:03.740Z,86.99
2018-04-01T12:52:03.747Z,87.57
2018-04-01T12:53:03.980Z,86.99
2018-04-01T12:54:03.713Z,88.33
2018-04-01T12:55:03.958Z,88.8